Time;durP1;ratioP1;P1;durP2;ratioP2;P2;SDS_P1;SDS_P2;PMS_P1;PMS_P2;Temp;Humidity;BMP_temperature;BMP_pressure;BME280_temperature;BME280_humidity;BME280_pressure;Samples;Min_cycle;Max_cycle;Signal;HPM_P1;HPM_P2
2023/01/09 00:01:38;;;;;;;1.88;1.05;;;6.90;99.90;;;;;;5093516;28;20064;-70
2023/01/09 00:04:04;;;;;;;2.05;0.80;;;6.90;99.90;;;;;;5076702;28;20040;-70
2023/01/09 00:06:30;;;;;;;4.97;0.90;;;7.00;99.90;;;;;;5076037;28;20476;-70
2023/01/09 00:08:56;;;;;;;1.70;0.80;;;7.00;99.90;;;;;;5060137;28;20044;-69
2023/01/09 00:11:22;;;;;;;1.83;0.95;;;7.00;99.90;;;;;;5093825;28;20051;-69
2023/01/09 00:13:48;;;;;;;2.63;0.90;;;7.00;99.90;;;;;;5093734;28;20044;-69
2023/01/09 00:16:14;;;;;;;3.10;0.88;;;7.00;99.90;;;;;;5093719;28;20044;-70
2023/01/09 00:18:40;;;;;;;1.13;0.80;;;7.10;99.90;;;;;;5093650;28;20090;-70
2023/01/09 00:21:08;;;;;;;3.10;0.80;;;7.30;99.90;;;;;;5093674;28;20430;-69
2023/01/09 00:23:34;;;;;;;1.55;0.75;;;7.10;99.90;;;;;;5093587;28;20040;-70
2023/01/09 00:26:13;;;;;;;2.17;0.90;;;7.10;99.90;;;;;;5093627;28;20044;-70
2023/01/09 00:28:39;;;;;;;3.38;1.00;;;7.10;99.90;;;;;;5076065;28;20083;-70
2023/01/09 00:31:07;;;;;;;1.20;0.80;;;7.10;99.90;;;;;;5093501;28;20047;-70
2023/01/09 00:33:53;;;;;;;2.72;0.98;;;7.10;99.90;;;;;;5093638;28;20088;-70
2023/01/09 00:36:18;;;;;;;2.22;0.95;;;7.10;99.90;;;;;;5094115;28;20114;-70
2023/01/09 00:38:44;;;;;;;1.95;0.80;;;7.10;99.90;;;;;;5075970;28;20146;-70
2023/01/09 00:41:15;;;;;;;2.63;1.10;;;7.10;99.90;;;;;;5093499;28;20387;-70
2023/01/09 00:43:46;;;;;;;4.25;0.98;;;7.10;99.90;;;;;;5093155;28;20043;-70
2023/01/09 00:46:12;;;;;;;2.05;0.85;;;7.10;99.90;;;;;;5058707;28;20048;-69
2023/01/09 00:48:41;;;;;;;2.40;0.75;;;7.20;99.90;;;;;;5076401;28;20044;-70
2023/01/09 00:51:07;;;;;;;3.03;0.80;;;7.30;99.90;;;;;;5075435;28;20052;-70
2023/01/09 00:53:36;;;;;;;2.83;0.98;;;7.20;99.90;;;;;;5076315;28;20097;-70
2023/01/09 00:56:06;;;;;;;3.88;0.82;;;7.20;99.90;;;;;;5075561;28;20048;-70
2023/01/09 00:58:33;;;;;;;1.95;0.90;;;7.30;99.90;;;;;;5093872;28;20079;-70
2023/01/09 01:00:59;;;;;;;2.10;0.85;;;7.30;99.90;;;;;;5094796;28;20396;-70
2023/01/09 01:03:25;;;;;;;1.80;0.80;;;7.30;99.90;;;;;;5078662;28;20044;-70
2023/01/09 01:08:35;;;;;;;3.30;0.98;;;7.30;99.90;;;;;;5097686;28;20063;-70
2023/01/09 01:11:08;;;;;;;3.63;1.15;;;7.20;99.90;;;;;;5097137;28;20044;-69
2023/01/09 01:13:35;;;;;;;2.75;0.70;;;7.20;99.90;;;;;;5097180;28;20096;-70
2023/01/09 01:16:04;;;;;;;2.55;0.30;;;7.10;99.90;;;;;;5079059;28;20043;-71
2023/01/09 01:18:30;;;;;;;0.30;0.20;;;6.90;99.90;;;;;;5079132;28;20414;-71
2023/01/09 01:20:56;;;;;;;1.40;0.75;;;6.80;99.90;;;;;;5096936;28;20100;-71
2023/01/09 01:23:22;;;;;;;0.88;0.25;;;6.80;99.90;;;;;;5097073;28;20055;-71
2023/01/09 01:25:48;;;;;;;0.82;0.22;;;6.70;99.90;;;;;;5097402;28;20051;-72
2023/01/09 01:28:14;;;;;;;2.53;0.32;;;6.50;99.90;;;;;;5079674;28;20131;-72
2023/01/09 01:30:41;;;;;;;1.38;0.30;;;6.40;99.90;;;;;;5078478;28;20606;-71
2023/01/09 01:33:08;;;;;;;0.90;0.50;;;6.60;99.90;;;;;;5078137;28;20044;-71
2023/01/09 01:35:34;;;;;;;0.98;0.70;;;6.50;99.90;;;;;;5096630;28;20430;-70
2023/01/09 01:38:00;;;;;;;3.53;1.25;;;6.70;99.90;;;;;;5078233;28;20046;-70
2023/01/09 01:40:26;;;;;;;4.93;1.45;;;6.60;99.90;;;;;;5096486;28;20044;-71
2023/01/09 01:42:53;;;;;;;5.10;1.80;;;6.60;99.90;;;;;;5061943;28;20055;-70
2023/01/09 01:45:21;;;;;;;4.65;2.22;;;6.70;99.90;;;;;;5096945;28;20054;-70
2023/01/09 01:47:53;;;;;;;3.45;1.83;;;6.70;99.90;;;;;;5096285;28;20048;-70
2023/01/09 01:50:25;;;;;;;4.45;1.40;;;6.70;99.90;;;;;;5096324;28;20400;-70
2023/01/09 01:53:05;;;;;;;1.60;1.00;;;6.70;99.90;;;;;;5096316;28;20109;-70
2023/01/09 01:55:35;;;;;;;2.42;0.80;;;6.70;99.90;;;;;;5096311;28;20044;-71
2023/01/09 01:58:04;;;;;;;1.95;0.82;;;6.70;99.90;;;;;;5096191;28;20430;-70
2023/01/09 02:00:34;;;;;;;1.30;0.50;;;6.80;99.90;;;;;;5096680;28;20047;-70
2023/01/09 02:03:00;;;;;;;1.83;0.65;;;6.90;99.90;;;;;;5096485;28;20157;-70
2023/01/09 02:05:26;;;;;;;2.90;0.40;;;6.70;99.90;;;;;;5061500;28;20079;-70
2023/01/09 02:07:52;;;;;;;3.50;0.60;;;6.70;99.90;;;;;;5077912;28;20083;-70
2023/01/09 02:10:22;;;;;;;0.93;0.43;;;6.90;99.90;;;;;;5096016;28;20123;-70
2023/01/09 02:12:48;;;;;;;1.63;0.40;;;6.70;99.90;;;;;;5077233;28;20110;-70
2023/01/09 02:15:15;;;;;;;1.30;0.50;;;6.70;99.90;;;;;;5095948;28;20483;-70
2023/01/09 02:18:05;;;;;;;1.67;0.60;;;6.70;99.90;;;;;;5095873;28;20082;-70
2023/01/09 02:20:50;;;;;;;0.70;0.45;;;6.70;99.90;;;;;;5096698;28;20040;-71
2023/01/09 02:23:48;;;;;;;0.88;0.40;;;6.70;99.90;;;;;;5096602;28;20130;-70
2023/01/09 02:26:29;;;;;;;1.33;0.60;;;6.70;99.90;;;;;;5078443;28;20472;-70
2023/01/09 02:29:25;;;;;;;3.50;0.50;;;6.70;99.90;;;;;;5095637;28;20047;-70
2023/01/09 02:32:12;;;;;;;1.08;0.50;;;6.70;99.90;;;;;;5095552;28;20048;-70
2023/01/09 02:34:48;;;;;;;1.33;0.40;;;6.60;99.90;;;;;;5096356;28;20048;-70
2023/01/09 02:37:22;;;;;;;1.40;0.40;;;6.60;99.90;;;;;;5095415;28;20097;-70
2023/01/09 02:40:10;;;;;;;0.68;0.40;;;6.60;99.90;;;;;;5077848;28;20064;-70
2023/01/09 02:42:38;;;;;;;0.93;0.40;;;6.70;99.90;;;;;;5096188;28;20048;-70
2023/01/09 02:45:04;;;;;;;1.60;0.60;;;6.60;99.90;;;;;;5077131;28;20052;-70
2023/01/09 02:47:56;;;;;;;1.33;0.45;;;6.60;99.90;;;;;;5095750;28;20044;-70
2023/01/09 02:50:55;;;;;;;2.42;0.70;;;6.60;99.90;;;;;;5091104;28;20056;-70
2023/01/09 02:53:40;;;;;;;3.42;0.85;;;6.60;99.90;;;;;;5077050;28;20067;-70
2023/01/09 02:56:41;;;;;;;2.35;0.70;;;6.70;99.90;;;;;;5095945;28;20388;-69
2023/01/09 02:59:24;;;;;;;1.40;0.70;;;6.70;99.90;;;;;;5032520;28;20429;-69
2023/01/09 03:01:53;;;;;;;3.47;1.08;;;6.70;99.90;;;;;;5089257;28;20392;-69
2023/01/09 03:04:42;;;;;;;3.50;0.73;;;6.70;99.90;;;;;;5076759;28;20040;-70
2023/01/09 03:07:20;;;;;;;4.28;1.00;;;6.70;99.90;;;;;;5095762;28;20388;-70
2023/01/09 03:09:49;;;;;;;3.65;0.80;;;6.70;99.90;;;;;;5095177;28;20052;-70
2023/01/09 03:12:21;;;;;;;1.08;0.80;;;6.70;99.90;;;;;;5094841;28;20048;-70
2023/01/09 03:14:52;;;;;;;2.72;0.90;;;6.60;99.90;;;;;;5076597;28;20123;-70
2023/01/09 03:17:38;;;;;;;1.65;0.90;;;6.60;99.90;;;;;;5094995;28;20048;-70
2023/01/09 03:20:08;;;;;;;2.05;1.02;;;6.60;99.90;;;;;;5076670;28;20131;-70
2023/01/09 03:22:33;;;;;;;2.47;0.90;;;6.60;99.90;;;;;;5094142;28;20048;-70
2023/01/09 03:24:59;;;;;;;2.95;1.05;;;6.70;99.90;;;;;;5094214;28;20062;-70
2023/01/09 03:27:25;;;;;;;3.80;1.27;;;6.60;99.90;;;;;;5094462;28;20040;-69
2023/01/09 03:29:52;;;;;;;2.92;1.10;;;6.60;99.90;;;;;;5077368;28;20051;-70
2023/01/09 03:32:18;;;;;;;3.03;1.05;;;6.50;99.90;;;;;;5094343;28;20048;-69
2023/01/09 03:34:44;;;;;;;6.32;1.10;;;6.50;99.90;;;;;;5094410;28;20056;-70
2023/01/09 03:37:10;;;;;;;2.97;1.20;;;6.50;99.90;;;;;;5094353;28;20040;-70
2023/01/09 03:39:35;;;;;;;5.18;1.05;;;6.50;99.90;;;;;;5076881;28;20048;-70
2023/01/09 03:42:01;;;;;;;2.35;1.25;;;6.50;99.90;;;;;;5094190;28;20081;-69
2023/01/09 03:44:27;;;;;;;3.45;1.08;;;6.40;99.90;;;;;;5094929;28;20372;-69
2023/01/09 03:46:52;;;;;;;3.95;1.55;;;6.50;99.90;;;;;;5094942;28;20131;-69
2023/01/09 03:49:18;;;;;;;5.10;1.20;;;6.40;99.90;;;;;;5094670;28;20364;-70
2023/01/09 03:51:44;;;;;;;4.20;1.13;;;6.40;99.90;;;;;;5094079;28;20044;-69
2023/01/09 03:54:09;;;;;;;3.10;1.05;;;6.40;99.90;;;;;;5094337;28;20460;-70
2023/01/09 03:56:35;;;;;;;3.80;1.20;;;6.40;99.90;;;;;;5076404;28;20395;-70
2023/01/09 03:59:01;;;;;;;4.00;1.20;;;6.40;99.90;;;;;;5093971;28;20388;-70
2023/01/09 04:01:26;;;;;;;3.05;1.25;;;6.30;99.90;;;;;;5094405;28;20141;-69
2023/01/09 04:03:52;;;;;;;2.65;1.30;;;6.20;99.90;;;;;;5094747;28;20139;-70
2023/01/09 04:06:18;;;;;;;6.80;1.30;;;6.30;99.90;;;;;;5093912;28;20040;-70
2023/01/09 04:08:45;;;;;;;4.20;1.38;;;6.30;99.90;;;;;;5094434;28;20070;-70
2023/01/09 04:11:10;;;;;;;2.80;1.42;;;6.20;99.90;;;;;;5093803;28;20054;-70
2023/01/09 04:13:36;;;;;;;3.15;1.20;;;6.10;99.90;;;;;;5075912;28;20135;-70
2023/01/09 04:16:02;;;;;;;4.22;1.70;;;6.30;99.90;;;;;;5075857;28;20091;-70
2023/01/09 04:18:28;;;;;;;6.20;1.67;;;6.20;99.90;;;;;;5093694;28;20131;-69
2023/01/09 04:20:53;;;;;;;7.25;2.30;;;6.20;99.90;;;;;;5075849;28;20048;-70
2023/01/09 04:23:19;;;;;;;4.50;1.50;;;6.10;99.90;;;;;;5075589;28;20036;-69
2023/01/09 04:25:46;;;;;;;4.90;1.65;;;6.60;99.90;;;;;;5076258;28;20048;-69
2023/01/09 04:28:12;;;;;;;4.18;1.58;;;6.10;99.90;;;;;;5093663;28;20044;-70
2023/01/09 04:30:38;;;;;;;6.75;1.65;;;6.10;99.90;;;;;;5094130;28;20387;-70
2023/01/09 04:33:03;;;;;;;5.80;1.92;;;6.00;99.90;;;;;;5094052;28;20047;-70
2023/01/09 04:35:29;;;;;;;3.60;1.67;;;6.10;99.90;;;;;;5076265;28;20040;-70
2023/01/09 04:37:55;;;;;;;4.07;1.65;;;6.10;99.90;;;;;;5098568;28;20044;-69
2023/01/09 04:40:20;;;;;;;3.90;1.60;;;5.90;99.90;;;;;;5080265;28;20491;-69
2023/01/09 04:42:46;;;;;;;6.95;1.25;;;6.10;99.90;;;;;;5079719;28;20176;-70
2023/01/09 04:45:14;;;;;;;2.63;1.50;;;6.00;99.90;;;;;;5097541;28;20126;-70
2023/01/09 04:47:40;;;;;;;3.47;1.10;;;5.90;99.90;;;;;;5079740;28;20074;-70
2023/01/09 04:50:06;;;;;;;4.72;1.70;;;5.90;99.90;;;;;;5097810;28;20052;-70
2023/01/09 04:52:31;;;;;;;3.05;1.10;;;5.90;99.90;;;;;;5097496;28;20551;-70
2023/01/09 04:54:57;;;;;;;5.90;1.40;;;5.90;99.90;;;;;;5097438;28;20044;-70
2023/01/09 04:57:23;;;;;;;5.07;1.85;;;5.90;99.90;;;;;;5097402;28;20055;-70
2023/01/09 04:59:49;;;;;;;5.43;1.42;;;5.80;99.90;;;;;;5097351;28;20051;-69
2023/01/09 05:02:14;;;;;;;4.80;1.27;;;5.80;99.90;;;;;;5097022;28;20160;-69
2023/01/09 05:04:40;;;;;;;4.57;1.40;;;5.80;99.90;;;;;;5097260;28;20048;-69
2023/01/09 05:07:06;;;;;;;5.72;1.50;;;5.80;99.90;;;;;;5097233;28;20050;-69
2023/01/09 05:09:31;;;;;;;4.50;1.90;;;5.80;99.90;;;;;;5080086;28;20059;-69
2023/01/09 05:11:57;;;;;;;4.30;1.50;;;5.70;99.90;;;;;;5097659;28;20098;-69
2023/01/09 05:14:23;;;;;;;6.93;1.70;;;5.70;99.90;;;;;;5097098;28;20040;-70
2023/01/09 05:16:49;;;;;;;3.50;1.80;;;5.90;99.90;;;;;;5097057;28;20092;-70
2023/01/09 05:19:14;;;;;;;4.15;1.70;;;5.90;99.90;;;;;;5079527;28;20050;-70
2023/01/09 05:21:40;;;;;;;5.50;1.98;;;5.80;99.90;;;;;;5063226;28;20056;-70
2023/01/09 05:24:06;;;;;;;4.95;1.85;;;5.70;99.90;;;;;;5097128;28;20040;-70
2023/01/09 05:26:32;;;;;;;4.53;2.40;;;5.70;99.90;;;;;;5096853;28;20052;-70
2023/01/09 05:28:57;;;;;;;6.50;3.20;;;5.70;99.90;;;;;;5079323;28;20056;-69
2023/01/09 05:31:25;;;;;;;6.30;3.20;;;5.60;99.90;;;;;;5097027;28;20044;-70
2023/01/09 05:33:51;;;;;;;5.60;3.25;;;5.60;99.90;;;;;;5096706;28;20079;-69
2023/01/09 05:36:17;;;;;;;5.18;3.10;;;5.70;99.90;;;;;;5096705;28;20071;-70
2023/01/09 05:38:43;;;;;;;6.97;3.63;;;5.60;99.90;;;;;;5097474;28;20430;-69
2023/01/09 05:41:09;;;;;;;8.70;3.75;;;5.60;99.90;;;;;;5096614;28;20109;-70
2023/01/09 05:43:35;;;;;;;6.60;3.97;;;5.60;99.90;;;;;;5097031;28;20044;-69
2023/01/09 05:46:00;;;;;;;8.70;4.28;;;5.70;99.90;;;;;;5096406;28;20048;-69
2023/01/09 05:48:26;;;;;;;6.65;4.32;;;5.70;99.90;;;;;;5096460;28;20391;-69
2023/01/09 05:50:52;;;;;;;9.02;4.68;;;5.70;99.90;;;;;;5078377;28;20079;-69
2023/01/09 05:53:17;;;;;;;8.90;5.20;;;6.00;99.90;;;;;;5096368;28;20040;-69
2023/01/09 05:55:43;;;;;;;9.18;5.72;;;5.80;99.90;;;;;;5096273;28;20048;-70
2023/01/09 05:58:09;;;;;;;7.72;4.82;;;5.90;99.90;;;;;;5096190;28;20044;-69
2023/01/09 06:00:35;;;;;;;9.32;5.38;;;5.80;99.90;;;;;;5096775;28;20179;-69
2023/01/09 06:03:01;;;;;;;11.07;6.10;;;5.90;99.90;;;;;;5075013;28;20435;-70
2023/01/09 06:05:27;;;;;;;11.00;6.07;;;5.90;99.90;;;;;;5059102;28;20056;-70
2023/01/09 06:07:53;;;;;;;12.45;6.93;;;5.90;99.90;;;;;;5076387;28;20079;-69
2023/01/09 06:10:18;;;;;;;11.68;6.40;;;5.90;99.90;;;;;;5076051;28;20048;-69
2023/01/09 06:12:49;;;;;;;12.50;6.68;;;5.80;99.90;;;;;;5075745;28;20495;-70
2023/01/09 06:15:16;;;;;;;11.00;6.97;;;6.00;99.90;;;;;;5076291;28;20048;-70
2023/01/09 06:17:42;;;;;;;15.23;7.22;;;5.90;99.90;;;;;;5074462;28;20098;-69
2023/01/09 06:20:09;;;;;;;10.18;6.45;;;5.90;99.90;;;;;;5075653;28;20435;-69
2023/01/09 06:22:35;;;;;;;12.63;6.80;;;5.90;99.90;;;;;;5076132;28;20059;-69
2023/01/09 06:25:01;;;;;;;12.48;7.22;;;5.90;99.90;;;;;;5075442;28;20395;-70
2023/01/09 06:27:27;;;;;;;14.40;7.93;;;5.90;99.90;;;;;;5076223;28;20066;-69
2023/01/09 06:29:52;;;;;;;10.48;7.00;;;6.00;99.90;;;;;;5074230;28;20058;-70
2023/01/09 06:32:18;;;;;;;13.45;7.43;;;5.90;99.90;;;;;;5074139;28;20044;-70
2023/01/09 06:34:44;;;;;;;13.10;7.60;;;6.00;99.90;;;;;;5075909;28;20044;-69
2023/01/09 06:37:10;;;;;;;12.57;6.55;;;5.90;99.90;;;;;;5075306;28;20048;-69
2023/01/09 06:39:35;;;;;;;12.45;6.57;;;5.90;99.90;;;;;;5075182;28;20051;-69
2023/01/09 06:42:01;;;;;;;13.75;7.25;;;6.00;99.90;;;;;;5075088;28;20036;-70
2023/01/09 06:44:27;;;;;;;13.13;6.55;;;6.10;99.90;;;;;;5073888;28;20143;-70
2023/01/09 06:46:53;;;;;;;11.90;6.43;;;6.00;99.90;;;;;;5075108;28;20473;-69
2023/01/09 06:49:22;;;;;;;10.75;5.93;;;6.00;99.90;;;;;;5075050;28;20127;-69
2023/01/09 06:51:51;;;;;;;15.27;6.47;;;6.00;99.90;;;;;;5075278;28;20071;-69
2023/01/09 06:54:20;;;;;;;13.82;6.47;;;6.10;99.90;;;;;;5074942;28;20048;-69
2023/01/09 06:56:46;;;;;;;13.00;6.03;;;6.00;99.90;;;;;;5074894;28;20044;-69
2023/01/09 06:59:12;;;;;;;12.65;6.15;;;6.00;99.90;;;;;;5074294;28;20155;-69
2023/01/09 07:01:38;;;;;;;11.35;6.05;;;6.00;99.90;;;;;;5079062;28;20056;-69
2023/01/09 07:04:05;;;;;;;10.45;6.05;;;6.10;99.90;;;;;;5094913;28;20084;-69
2023/01/09 07:06:32;;;;;;;12.40;6.22;;;6.10;99.90;;;;;;5094642;28;20483;-70
2023/01/09 07:08:57;;;;;;;10.23;5.95;;;6.00;99.90;;;;;;5077048;28;20429;-69
2023/01/09 07:11:23;;;;;;;13.18;6.05;;;6.00;99.90;;;;;;5076574;28;20048;-70
2023/01/09 07:13:49;;;;;;;9.50;5.72;;;6.10;99.90;;;;;;5077581;28;20040;-70
2023/01/09 07:16:15;;;;;;;10.38;5.65;;;6.00;99.90;;;;;;5094814;28;20054;-70
2023/01/09 07:18:40;;;;;;;11.20;5.68;;;6.10;99.90;;;;;;5094978;28;20384;-71
2023/01/09 07:21:06;;;;;;;10.25;5.88;;;6.10;99.90;;;;;;5094629;28;20430;-70
2023/01/09 07:23:33;;;;;;;10.07;5.72;;;6.10;99.90;;;;;;5095076;28;20066;-71
2023/01/09 07:25:59;;;;;;;10.13;5.82;;;6.10;99.90;;;;;;5094882;28;20391;-71
2023/01/09 07:28:25;;;;;;;9.48;5.30;;;6.00;99.90;;;;;;5094503;28;20046;-70
2023/01/09 07:30:50;;;;;;;8.18;4.90;;;6.10;99.90;;;;;;5094487;28;20044;-70
2023/01/09 07:33:16;;;;;;;8.45;4.90;;;6.00;99.90;;;;;;5076280;28;20148;-70
2023/01/09 07:35:42;;;;;;;11.63;5.05;;;6.20;99.90;;;;;;5077271;28;20044;-70
2023/01/09 07:38:08;;;;;;;9.63;5.07;;;6.10;99.90;;;;;;5094558;28;20047;-70
2023/01/09 07:40:33;;;;;;;11.77;5.20;;;6.00;99.90;;;;;;5094287;28;20051;-70
2023/01/09 07:42:59;;;;;;;10.38;4.75;;;6.00;99.90;;;;;;5094185;28;20055;-70
2023/01/09 07:45:25;;;;;;;10.32;4.88;;;6.00;99.90;;;;;;5093788;28;20091;-70
2023/01/09 07:47:51;;;;;;;7.95;4.00;;;5.90;99.90;;;;;;5094203;28;20051;-70
2023/01/09 07:50:17;;;;;;;12.15;4.15;;;6.00;99.90;;;;;;5076159;28;20040;-70
2023/01/09 07:52:46;;;;;;;9.68;4.35;;;6.00;99.90;;;;;;5094121;28;20044;-70
2023/01/09 07:55:12;;;;;;;7.47;4.15;;;5.90;99.90;;;;;;5077069;28;20040;-70
2023/01/09 07:57:38;;;;;;;6.05;3.30;;;6.00;99.90;;;;;;5094278;28;20136;-70
2023/01/09 08:00:06;;;;;;;8.68;4.10;;;6.00;99.90;;;;;;5094054;28;20144;-71
2023/01/09 08:02:32;;;;;;;7.75;3.55;;;6.00;99.90;;;;;;5094009;28;20056;-70
2023/01/09 08:04:58;;;;;;;9.02;4.07;;;6.00;99.90;;;;;;5093851;28;20448;-71
2023/01/09 08:07:24;;;;;;;5.65;3.47;;;6.00;99.90;;;;;;5076362;28;20075;-70
2023/01/09 08:09:49;;;;;;;8.48;3.80;;;6.00;99.90;;;;;;5093156;28;20044;-70
2023/01/09 08:12:15;;;;;;;7.20;3.30;;;6.20;99.90;;;;;;5093648;28;20048;-70
2023/01/09 08:14:41;;;;;;;6.53;3.20;;;6.10;99.90;;;;;;5094329;28;20043;-70
2023/01/09 08:17:08;;;;;;;6.78;3.20;;;6.00;99.90;;;;;;5093680;28;20051;-70
2023/01/09 08:19:34;;;;;;;6.63;3.53;;;6.10;99.90;;;;;;5093699;28;20445;-70
2023/01/09 08:21:59;;;;;;;8.50;4.00;;;6.10;99.90;;;;;;5076401;28;20123;-70
2023/01/09 08:24:25;;;;;;;5.93;3.97;;;6.10;99.90;;;;;;5093562;28;20140;-70
2023/01/09 08:26:51;;;;;;;7.88;2.97;;;6.10;99.90;;;;;;5075607;28;20040;-70
2023/01/09 08:29:16;;;;;;;5.22;2.97;;;6.10;99.90;;;;;;5093567;28;20082;-70
2023/01/09 08:31:42;;;;;;;5.95;2.92;;;6.20;99.90;;;;;;5093469;28;20097;-70
2023/01/09 08:34:08;;;;;;;5.97;2.92;;;6.10;99.90;;;;;;5093568;28;20126;-70
2023/01/09 08:36:33;;;;;;;7.13;3.42;;;6.10;99.90;;;;;;5093736;28;20369;-70
2023/01/09 08:38:59;;;;;;;5.97;3.05;;;6.10;99.90;;;;;;5059347;28;20047;-70
2023/01/09 08:47:06;;;;;;;6.63;2.70;;;6.20;99.90;;;;;;5094071;28;20056;-71
2023/01/09 08:49:33;;;;;;;6.65;2.53;;;6.10;99.90;;;;;;5093646;28;20499;-70
2023/01/09 08:51:58;;;;;;;5.90;2.60;;;6.20;99.90;;;;;;5093537;28;20127;-71
2023/01/09 08:54:24;;;;;;;6.32;2.30;;;6.20;99.90;;;;;;5093498;28;20075;-70
2023/01/09 08:56:50;;;;;;;3.53;2.10;;;6.20;99.90;;;;;;5093490;28;20048;-71
2023/01/09 08:59:16;;;;;;;4.32;2.10;;;6.20;99.90;;;;;;5093479;28;20556;-71
2023/01/09 09:01:41;;;;;;;5.65;2.33;;;6.20;99.90;;;;;;5093091;28;20088;-70
2023/01/09 09:04:07;;;;;;;5.55;2.40;;;6.20;99.90;;;;;;5093342;28;20102;-70
2023/01/09 09:06:33;;;;;;;4.65;1.88;;;6.20;99.90;;;;;;5093431;28;20044;-69
2023/01/09 09:09:02;;;;;;;4.07;1.85;;;6.20;99.90;;;;;;5093941;28;20047;-69
2023/01/09 09:11:34;;;;;;;4.60;1.83;;;6.20;99.90;;;;;;5093671;28;20052;-69
2023/01/09 09:14:00;;;;;;;4.93;1.85;;;6.20;99.90;;;;;;5093959;28;20380;-70
2023/01/09 09:16:26;;;;;;;3.30;2.03;;;6.30;99.90;;;;;;5093286;28;20535;-69
2023/01/09 09:18:52;;;;;;;4.97;1.40;;;6.40;99.90;;;;;;5093560;28;20040;-70
2023/01/09 09:21:19;;;;;;;5.05;2.08;;;6.40;99.90;;;;;;5075728;28;20069;-71
2023/01/09 09:23:45;;;;;;;4.47;1.60;;;6.40;99.90;;;;;;5096994;28;20056;-71
2023/01/09 09:26:11;;;;;;;4.65;1.83;;;6.30;99.90;;;;;;5079508;28;20048;-70
2023/01/09 09:28:37;;;;;;;4.00;1.42;;;6.30;99.90;;;;;;5097090;28;20561;-73
2023/01/09 09:31:06;;;;;;;3.22;1.80;;;6.30;99.90;;;;;;5078875;28;20044;-71
2023/01/09 09:33:32;;;;;;;4.65;1.52;;;6.50;99.90;;;;;;5078769;28;20048;-71
2023/01/09 09:35:58;;;;;;;3.75;1.60;;;6.30;99.90;;;;;;5097148;28;20050;-72
2023/01/09 09:38:24;;;;;;;3.03;1.38;;;6.40;99.90;;;;;;5097564;28;20417;-72
2023/01/09 09:44:42;;;;;;;3.70;1.63;;;6.40;99.90;;;;;;5096475;28;20051;-70
2023/01/09 09:47:26;;;;;;;4.07;1.60;;;6.40;99.90;;;;;;5078479;28;20044;-72
2023/01/09 09:50:10;;;;;;;5.68;1.58;;;6.40;99.90;;;;;;5096819;28;20048;-72
2023/01/09 09:53:04;;;;;;;4.55;1.52;;;6.40;99.90;;;;;;5097075;28;20048;-73
2023/01/09 09:55:32;;;;;;;;;;;6.40;99.90;;;;;;5088788;28;20105;-72
2023/01/09 09:58:06;;;;;;;3.67;1.55;;;6.50;99.90;;;;;;5096699;28;19920;-72
2023/01/09 10:00:32;;;;;;;2.78;1.35;;;6.50;99.90;;;;;;5096288;28;20048;-70
2023/01/09 10:03:10;;;;;;;5.82;1.48;;;6.50;99.90;;;;;;5091605;28;20062;-70
2023/01/09 10:05:43;;;;;;;5.03;1.63;;;6.50;99.90;;;;;;5096739;28;20498;-70
2023/01/09 10:08:44;;;;;;;5.10;1.98;;;6.50;99.90;;;;;;5096283;28;20089;-70
2023/01/09 10:11:26;;;;;;;5.43;1.70;;;6.50;99.90;;;;;;5097007;28;20044;-70
2023/01/09 10:14:04;;;;;;;3.97;1.60;;;6.50;99.90;;;;;;5078571;28;20052;-71
2023/01/09 10:16:42;;;;;;;8.02;1.70;;;6.50;99.90;;;;;;5079032;28;20048;-70
2023/01/09 10:19:22;;;;;;;4.45;1.55;;;6.60;99.90;;;;;;5096602;28;20052;-70
2023/01/09 10:22:02;;;;;;;5.70;1.48;;;6.60;99.90;;;;;;5095961;28;20044;-71
2023/01/09 10:24:45;;;;;;;4.40;1.85;;;6.60;99.90;;;;;;5078652;28;20043;-71
2023/01/09 10:27:36;;;;;;;4.03;1.55;;;6.70;99.90;;;;;;5078350;28;20487;-71
2023/01/09 10:30:41;;;;;;;4.18;1.30;;;6.70;99.90;;;;;;5096016;28;20543;-70
2023/01/09 10:33:30;;;;;;;5.20;1.50;;;6.80;99.90;;;;;;5077167;28;20048;-72
2023/01/09 10:36:22;;;;;;;4.82;1.60;;;6.80;99.90;;;;;;5095663;28;20059;-71
2023/01/09 10:38:51;;;;;;;4.67;1.47;;;6.80;99.90;;;;;;5077790;28;20105;-71
2023/01/09 10:41:37;;;;;;;4.82;1.73;;;6.90;99.90;;;;;;5060793;28;20054;-72
2023/01/09 10:44:05;;;;;;;7.40;1.70;;;6.90;99.90;;;;;;5077765;28;20044;-73
2023/01/09 10:46:55;;;;;;;4.80;1.77;;;6.90;99.90;;;;;;5095454;28;20043;-72
2023/01/09 10:49:22;;;;;;;3.88;1.55;;;7.00;99.90;;;;;;5095475;28;20083;-72
2023/01/09 10:51:51;;;;;;;2.95;1.17;;;7.10;99.90;;;;;;5077474;28;20450;-72
2023/01/09 10:54:22;;;;;;;3.42;1.38;;;7.10;99.90;;;;;;5095241;28;20127;-72
2023/01/09 10:56:58;;;;;;;5.18;1.70;;;7.10;99.90;;;;;;5094845;28;20044;-72
2023/01/09 10:59:24;;;;;;;6.03;1.95;;;7.10;99.90;;;;;;5095401;28;20069;-71
2023/01/09 11:01:50;;;;;;;4.15;1.45;;;7.10;99.90;;;;;;5077479;28;20044;-71
2023/01/09 11:04:33;;;;;;;6.40;2.50;;;7.20;99.90;;;;;;5076946;28;20099;-72
2023/01/09 11:07:22;;;;;;;5.90;2.15;;;7.10;99.90;;;;;;5095403;28;20123;-71
2023/01/09 11:09:54;;;;;;;4.70;1.38;;;7.10;99.90;;;;;;5094903;28;20130;-72
2023/01/09 11:12:29;;;;;;;6.93;1.65;;;7.10;99.90;;;;;;5094898;28;20051;-71
2023/01/09 11:14:54;;;;;;;4.97;1.60;;;7.10;99.90;;;;;;5076974;28;20101;-71
2023/01/09 11:17:29;;;;;;;4.15;1.67;;;7.20;99.90;;;;;;5076649;28;20044;-72
2023/01/09 11:20:06;;;;;;;5.18;1.90;;;7.20;99.90;;;;;;5095570;28;20113;-72
2023/01/09 11:22:44;;;;;;;3.80;1.60;;;7.20;99.90;;;;;;5076778;28;20055;-71
2023/01/09 11:25:12;;;;;;;2.85;1.35;;;7.20;99.90;;;;;;5094552;28;20156;-72
2023/01/09 11:27:38;;;;;;;5.25;2.05;;;7.20;99.90;;;;;;5076157;28;20097;-71
2023/01/09 11:30:16;;;;;;;7.28;2.40;;;7.30;99.90;;;;;;5077116;28;20051;-71
2023/01/09 11:32:43;;;;;;;3.83;1.85;;;7.10;99.90;;;;;;5094424;28;20105;-72
2023/01/09 11:35:31;;;;;;;4.80;1.80;;;7.20;99.90;;;;;;5095155;28;20070;-72
2023/01/09 11:38:02;;;;;;;4.03;1.63;;;7.20;99.90;;;;;;5094337;28;20085;-71
2023/01/09 11:40:34;;;;;;;5.15;1.67;;;7.30;99.90;;;;;;5094202;28;20087;-72
2023/01/09 11:43:19;;;;;;;4.40;2.03;;;7.20;99.90;;;;;;5094351;28;20377;-72
2023/01/09 11:45:52;;;;;;;5.97;1.52;;;7.20;99.90;;;;;;5095035;28;20458;-72
2023/01/09 11:48:34;;;;;;;5.20;1.58;;;7.20;99.90;;;;;;5094048;28;20140;-72
2023/01/09 11:51:22;;;;;;;7.45;1.70;;;7.20;99.90;;;;;;5094577;28;20052;-72
2023/01/09 11:54:00;;;;;;;4.53;1.60;;;7.20;99.90;;;;;;5076994;28;20093;-72
2023/01/09 11:56:26;;;;;;;5.85;1.90;;;7.20;99.90;;;;;;5075662;28;20051;-71
2023/01/09 11:58:51;;;;;;;4.38;1.45;;;7.20;99.90;;;;;;5076214;28;20040;-72
2023/01/09 12:01:49;;;;;;;3.95;1.55;;;7.30;99.90;;;;;;5076687;28;20395;-72
2023/01/09 12:04:36;;;;;;;6.00;2.50;;;7.10;99.90;;;;;;5075983;28;20048;-72
2023/01/09 12:07:10;;;;;;;3.08;1.30;;;7.20;99.90;;;;;;5076533;28;20056;-72
2023/01/09 12:09:46;;;;;;;3.83;1.95;;;7.20;99.90;;;;;;5094030;28;20048;-72
2023/01/09 12:12:24;;;;;;;4.18;2.05;;;7.10;99.90;;;;;;5076393;28;20044;-72
2023/01/09 12:14:59;;;;;;;6.25;2.63;;;7.20;99.90;;;;;;5094728;28;20360;-72
2023/01/09 12:17:58;;;;;;;5.93;2.22;;;7.20;99.90;;;;;;5094179;28;20492;-72
2023/01/09 12:20:49;;;;;;;10.50;4.10;;;7.20;99.90;;;;;;5076855;28;20043;-72
2023/01/09 12:23:27;;;;;;;17.98;7.65;;;7.20;99.90;;;;;;5094109;28;20052;-71
2023/01/09 12:26:03;;;;;;;12.25;6.38;;;7.20;99.90;;;;;;5094375;28;20040;-72
2023/01/09 12:29:10;;;;;;;7.03;3.95;;;7.20;99.90;;;;;;5075865;28;20044;-72
2023/01/09 12:32:03;;;;;;;5.50;2.67;;;7.10;99.90;;;;;;5036695;28;20060;-72
2023/01/09 12:34:40;;;;;;;5.55;2.72;;;7.10;99.90;;;;;;5094160;28;20045;-72
2023/01/09 12:37:33;;;;;;;5.32;2.95;;;7.10;99.90;;;;;;5093864;28;20142;-74
2023/01/09 12:40:10;;;;;;;5.90;3.75;;;7.10;99.90;;;;;;5058866;28;20052;-72
2023/01/09 12:42:42;;;;;;;8.48;3.60;;;7.20;99.90;;;;;;5075671;28;20059;-72
2023/01/09 12:45:11;;;;;;;6.80;3.83;;;7.10;99.90;;;;;;5093555;28;20052;-72
2023/01/09 12:47:51;;;;;;;4.07;2.85;;;7.10;99.90;;;;;;5093476;28;20044;-72
2023/01/09 12:50:26;;;;;;;5.55;2.85;;;7.10;99.90;;;;;;5094224;28;20070;-72
2023/01/09 12:53:16;;;;;;;6.60;3.10;;;7.10;99.90;;;;;;5093456;28;20119;-72
2023/01/09 12:55:50;;;;;;;6.07;2.83;;;7.20;99.90;;;;;;5059580;28;20464;-72
2023/01/09 12:58:40;;;;;;;6.40;3.00;;;7.10;99.90;;;;;;5097106;28;20069;-72
2023/01/09 13:01:13;;;;;;;4.60;2.10;;;7.10;99.90;;;;;;5098327;28;20079;-73
2023/01/09 13:03:54;;;;;;;4.72;1.90;;;7.10;99.90;;;;;;5097761;28;20096;-72
2023/01/09 13:06:23;;;;;;;3.78;2.17;;;7.20;99.90;;;;;;5097910;28;20050;-72
2023/01/09 13:08:58;;;;;;;4.35;2.42;;;7.30;99.90;;;;;;5097813;28;20044;-73
2023/01/09 13:11:33;;;;;;;3.50;2.65;;;7.10;99.90;;;;;;5098439;28;20433;-73
2023/01/09 13:14:12;;;;;;;4.47;2.63;;;7.20;99.90;;;;;;5079966;28;20040;-73
2023/01/09 13:16:48;;;;;;;5.47;3.25;;;7.10;99.90;;;;;;5096928;28;20491;-72
2023/01/09 13:19:26;;;;;;;4.32;2.50;;;7.20;99.90;;;;;;5079095;28;20088;-72
2023/01/09 13:21:53;;;;;;;4.88;2.47;;;7.10;99.90;;;;;;5097711;28;20040;-72
2023/01/09 13:24:43;;;;;;;4.10;2.78;;;7.10;99.90;;;;;;5046019;28;20047;-73
2023/01/09 13:27:14;;;;;;;5.43;2.53;;;7.10;99.90;;;;;;5066423;28;20105;-71